createdAt,value
2019-04-13T00:00:12.502Z,5.97
2019-04-13T00:01:12.482Z,5.87
2019-04-13T00:02:12.490Z,5.80
2019-04-13T00:03:12.466Z,5.75
2019-04-13T00:04:12.461Z,5.67
2019-04-13T00:05:12.462Z,5.75
2019-04-13T00:06:12.433Z,5.69
2019-04-13T00:07:12.422Z,5.75
2019-04-13T00:08:12.425Z,5.76
2019-04-13T00:09:12.412Z,5.80
2019-04-13T00:10:12.396Z,5.72
2019-04-13T00:11:12.385Z,5.72
2019-04-13T00:12:12.370Z,5.82
2019-04-13T00:13:12.360Z,5.79
2019-04-13T00:14:12.350Z,5.72
2019-04-13T00:15:12.336Z,5.76
2019-04-13T00:16:12.348Z,5.79
2019-04-13T00:17:12.311Z,5.72
2019-04-13T00:18:12.298Z,5.76
2019-04-13T00:19:12.299Z,5.69
2019-04-13T00:20:12.289Z,5.65
2019-04-13T00:21:12.267Z,5.62
2019-04-13T00:22:12.276Z,5.65
2019-04-13T00:23:12.251Z,5.67
2019-04-13T00:24:12.241Z,5.67
2019-04-13T00:25:12.232Z,5.66
2019-04-13T00:26:12.220Z,5.66
2019-04-13T00:27:12.206Z,5.65
2019-04-13T00:28:12.195Z,5.70
2019-04-13T00:29:12.185Z,5.66
2019-04-13T00:30:12.176Z,5.66
2019-04-13T00:31:12.165Z,5.66
2019-04-13T00:32:12.150Z,5.57
2019-04-13T00:33:12.143Z,5.54
2019-04-13T00:34:12.133Z,5.41
2019-04-13T00:35:12.122Z,5.51
2019-04-13T00:36:12.110Z,5.54
2019-04-13T00:37:12.101Z,5.48
2019-04-13T00:38:12.091Z,5.54
2019-04-13T00:39:12.076Z,5.41
2019-04-13T00:40:12.064Z,5.50
2019-04-13T00:41:12.053Z,5.51
2019-04-13T00:42:12.043Z,5.41
2019-04-13T00:43:12.035Z,5.50
2019-04-13T00:44:12.045Z,5.39
2019-04-13T00:45:12.015Z,5.54
2019-04-13T00:46:12.000Z,5.43
2019-04-13T00:47:12.006Z,5.54
2019-04-13T00:48:11.992Z,5.50
2019-04-13T00:49:11.969Z,5.43
2019-04-13T00:50:11.960Z,5.39
2019-04-13T00:51:11.943Z,5.44
2019-04-13T00:52:11.932Z,5.44
2019-04-13T00:53:11.924Z,5.44
2019-04-13T00:54:11.914Z,5.52
2019-04-13T00:55:11.904Z,5.47
2019-04-13T00:56:11.893Z,5.52
2019-04-13T00:57:11.881Z,5.54
2019-04-13T00:58:11.873Z,5.61
2019-04-13T00:59:11.855Z,5.57
2019-04-13T01:00:11.845Z,5.52
2019-04-13T01:01:11.835Z,5.55
2019-04-13T01:02:11.828Z,5.52
2019-04-13T01:03:11.816Z,5.57
2019-04-13T01:04:11.801Z,5.50
2019-04-13T01:05:11.792Z,5.52
2019-04-13T01:06:11.783Z,5.62
2019-04-13T01:07:11.773Z,5.61
2019-04-13T01:08:11.762Z,5.55
2019-04-13T01:09:11.750Z,5.57
2019-04-13T01:10:11.743Z,5.47
2019-04-13T01:11:11.730Z,5.55
2019-04-13T01:12:11.719Z,5.44
2019-04-13T01:13:11.710Z,5.57
2019-04-13T01:14:11.694Z,5.58
2019-04-13T01:15:11.690Z,5.57
2019-04-13T01:16:11.673Z,5.52
2019-04-13T01:17:11.664Z,5.57
2019-04-13T01:18:11.650Z,5.41
2019-04-13T01:19:11.638Z,5.50
2019-04-13T01:20:11.629Z,5.39
2019-04-13T01:21:11.619Z,5.50
2019-04-13T01:22:11.606Z,5.41
2019-04-13T01:23:11.594Z,5.55
2019-04-13T01:24:11.577Z,5.57
2019-04-13T01:25:11.568Z,5.55
2019-04-13T01:26:11.570Z,5.62
2019-04-13T01:27:11.553Z,5.57
2019-04-13T01:28:11.541Z,5.57
2019-04-13T01:29:11.533Z,5.58
2019-04-13T01:30:11.519Z,5.58
2019-04-13T01:31:11.505Z,5.58
2019-04-13T01:32:11.497Z,5.57
2019-04-13T01:33:11.483Z,5.51
2019-04-13T01:34:11.476Z,5.43
2019-04-13T01:35:11.463Z,5.43
2019-04-13T01:36:11.452Z,5.43
2019-04-13T01:37:11.435Z,5.50
2019-04-13T01:38:11.428Z,5.44
2019-04-13T01:39:11.429Z,5.41
2019-04-13T01:40:11.409Z,5.37
2019-04-13T01:41:11.407Z,5.29
2019-04-13T01:42:11.385Z,5.30
2019-04-13T01:43:11.372Z,5.36
2019-04-13T01:44:11.376Z,5.27
2019-04-13T01:45:11.351Z,5.27
2019-04-13T01:46:11.343Z,5.25
2019-04-13T01:47:11.334Z,5.22
2019-04-13T01:48:11.320Z,5.16
2019-04-13T01:49:11.309Z,5.19
2019-04-13T01:50:11.296Z,5.16
2019-04-13T01:51:11.285Z,5.21
2019-04-13T01:52:11.277Z,5.15
2019-04-13T01:53:11.264Z,5.12
2019-04-13T01:54:11.251Z,5.12
2019-04-13T01:55:11.242Z,5.11
2019-04-13T01:56:11.224Z,5.15
2019-04-13T01:57:11.218Z,5.14
2019-04-13T01:58:11.209Z,5.15
2019-04-13T01:59:11.198Z,5.16
2019-04-13T02:00:11.187Z,5.14
2019-04-13T02:01:11.174Z,5.15
2019-04-13T02:02:11.171Z,5.18
2019-04-13T02:03:11.150Z,5.07
2019-04-13T02:04:11.141Z,5.16
2019-04-13T02:05:17.927Z,5.07
2019-04-13T02:06:11.121Z,5.14
2019-04-13T02:07:11.107Z,5.16
2019-04-13T02:08:11.094Z,5.22
2019-04-13T02:09:11.086Z,5.22
2019-04-13T02:10:11.075Z,5.15
2019-04-13T02:11:11.066Z,5.19
2019-04-13T02:12:11.053Z,5.21
2019-04-13T02:13:11.045Z,5.19
2019-04-13T02:14:11.027Z,5.19
2019-04-13T02:15:11.023Z,5.15
2019-04-13T02:16:11.004Z,5.19
2019-04-13T02:17:10.998Z,5.16
2019-04-13T02:18:10.986Z,5.11
2019-04-13T02:19:10.977Z,5.14
2019-04-13T02:20:10.962Z,5.11
2019-04-13T02:21:10.951Z,4.98
2019-04-13T02:22:10.938Z,5.03
2019-04-13T02:23:10.933Z,4.94
2019-04-13T02:24:10.925Z,4.98
2019-04-13T02:25:10.907Z,4.96
2019-04-13T02:26:10.890Z,5.00
2019-04-13T02:27:10.880Z,4.98
2019-04-13T02:28:10.872Z,4.86
2019-04-13T02:29:10.858Z,4.91
2019-04-13T02:30:10.848Z,4.88
2019-04-13T02:31:10.839Z,4.86
2019-04-13T02:32:10.827Z,4.97
2019-04-13T02:33:10.817Z,4.98
2019-04-13T02:34:10.804Z,4.88
2019-04-13T02:35:10.791Z,4.86
2019-04-13T02:36:10.776Z,4.98
2019-04-13T02:37:10.769Z,4.88
2019-04-13T02:38:10.758Z,4.93
2019-04-13T02:39:10.751Z,4.91
2019-04-13T02:40:10.735Z,4.97
2019-04-13T02:41:10.725Z,4.78
2019-04-13T02:42:10.714Z,4.77
2019-04-13T02:43:10.714Z,4.82
2019-04-13T02:44:10.699Z,4.82
2019-04-13T02:45:10.684Z,4.82
2019-04-13T02:46:10.664Z,4.66
2019-04-13T02:47:10.658Z,4.66
2019-04-13T02:48:10.643Z,4.67
2019-04-13T02:49:10.635Z,4.66
2019-04-13T02:50:10.622Z,4.66
2019-04-13T02:51:10.614Z,4.60
2019-04-13T02:52:10.594Z,4.63
2019-04-13T02:53:10.582Z,4.64
2019-04-13T02:54:10.583Z,4.66
2019-04-13T02:55:10.564Z,4.67
2019-04-13T02:56:10.555Z,4.66
2019-04-13T02:57:10.534Z,4.66
2019-04-13T02:58:10.524Z,4.60
2019-04-13T02:59:10.515Z,4.64
2019-04-13T03:00:11.900Z,4.63
2019-04-13T03:01:10.490Z,4.53
2019-04-13T03:02:10.485Z,4.56
2019-04-13T03:03:10.471Z,4.63
2019-04-13T03:04:10.458Z,4.51
2019-04-13T03:05:10.448Z,4.46
2019-04-13T03:06:10.434Z,4.46
2019-04-13T03:07:10.422Z,4.45
2019-04-13T03:08:10.408Z,4.45
2019-04-13T03:09:10.401Z,4.41
2019-04-13T03:10:10.389Z,4.42
2019-04-13T03:11:10.381Z,4.51
2019-04-13T03:12:10.365Z,4.51
2019-04-13T03:13:10.352Z,4.49
2019-04-13T03:14:10.343Z,4.41
2019-04-13T03:15:10.332Z,4.41
2019-04-13T03:16:10.321Z,4.48
2019-04-13T03:17:10.318Z,4.46
2019-04-13T03:18:10.294Z,4.54
2019-04-13T03:19:10.287Z,4.51
2019-04-13T03:20:10.274Z,4.46
2019-04-13T03:21:10.258Z,4.46
2019-04-13T03:22:10.250Z,4.46
2019-04-13T03:23:10.247Z,4.39
2019-04-13T03:24:10.239Z,4.35
2019-04-13T03:25:10.221Z,4.34
2019-04-13T03:26:10.201Z,4.38
2019-04-13T03:27:10.195Z,4.45
2019-04-13T03:28:10.182Z,4.41
2019-04-13T03:29:10.179Z,4.35
2019-04-13T03:30:10.160Z,4.35
2019-04-13T03:31:10.151Z,4.48
2019-04-13T03:32:10.135Z,4.49
2019-04-13T03:33:10.118Z,4.46
2019-04-13T03:34:10.113Z,4.60
2019-04-13T03:35:10.100Z,4.53
2019-04-13T03:36:10.088Z,4.57
2019-04-13T03:37:10.078Z,4.57
2019-04-13T03:38:10.064Z,4.49
2019-04-13T03:39:10.054Z,4.54
2019-04-13T03:40:10.044Z,4.54
2019-04-13T03:41:10.026Z,4.63
2019-04-13T03:42:10.028Z,4.63
2019-04-13T03:43:10.005Z,4.72
2019-04-13T03:44:09.995Z,4.57
2019-04-13T03:45:09.983Z,4.53
2019-04-13T03:46:09.974Z,4.57
2019-04-13T03:47:11.078Z,4.57
2019-04-13T03:48:09.952Z,4.45
2019-04-13T03:49:09.939Z,4.51
2019-04-13T03:50:09.925Z,4.53
2019-04-13T03:51:09.911Z,4.56
2019-04-13T03:52:09.904Z,4.63
2019-04-13T03:53:09.897Z,4.61
2019-04-13T03:54:09.885Z,4.53
2019-04-13T03:55:09.872Z,4.57
2019-04-13T03:56:09.859Z,4.56
2019-04-13T03:57:09.849Z,4.53
2019-04-13T03:58:09.832Z,4.51
2019-04-13T03:59:09.821Z,4.49
2019-04-13T04:00:09.814Z,4.63
2019-04-13T04:01:09.797Z,4.63
2019-04-13T04:02:09.786Z,4.60
2019-04-13T04:03:09.769Z,4.49
2019-04-13T04:04:09.764Z,4.64
2019-04-13T04:05:09.752Z,4.63
2019-04-13T04:06:11.797Z,4.56
2019-04-13T04:07:09.737Z,4.54
2019-04-13T04:08:09.723Z,4.61
2019-04-13T04:09:09.713Z,4.66
2019-04-13T04:10:09.694Z,4.64
2019-04-13T04:11:09.684Z,4.54
2019-04-13T04:12:10.148Z,4.61
2019-04-13T04:13:09.661Z,4.67
2019-04-13T04:14:09.657Z,4.60
2019-04-13T04:15:09.644Z,4.60
2019-04-13T04:16:09.625Z,4.63
2019-04-13T04:17:09.625Z,4.67
2019-04-13T04:18:09.607Z,4.64
2019-04-13T04:19:09.599Z,4.69
2019-04-13T04:20:09.582Z,4.71
2019-04-13T04:21:09.582Z,4.72
2019-04-13T04:22:09.559Z,4.64
2019-04-13T04:23:09.592Z,4.63
2019-04-13T04:24:09.541Z,4.60
2019-04-13T04:25:09.518Z,4.56
2019-04-13T04:26:09.514Z,4.66
2019-04-13T04:27:09.509Z,4.66
2019-04-13T04:28:09.490Z,4.63
2019-04-13T04:29:09.481Z,4.72
2019-04-13T04:30:09.466Z,4.69
2019-04-13T04:31:09.463Z,4.69
2019-04-13T04:32:09.443Z,4.64
2019-04-13T04:33:09.431Z,4.72
2019-04-13T04:34:09.418Z,4.69
2019-04-13T04:35:09.411Z,4.66
2019-04-13T04:36:09.398Z,4.85
2019-04-13T04:37:09.383Z,4.66
2019-04-13T04:38:09.380Z,4.64
2019-04-13T04:39:09.366Z,4.64
2019-04-13T04:40:09.350Z,4.78
2019-04-13T04:41:09.342Z,4.71
2019-04-13T04:42:09.326Z,4.69
2019-04-13T04:43:09.315Z,4.74
2019-04-13T04:44:09.305Z,4.69
2019-04-13T04:45:09.292Z,4.72
2019-04-13T04:46:09.284Z,4.67
2019-04-13T04:47:09.289Z,4.75
2019-04-13T04:48:09.257Z,4.67
2019-04-13T04:49:09.247Z,4.69
2019-04-13T04:50:09.253Z,4.75
2019-04-13T04:51:11.270Z,4.69
2019-04-13T04:52:09.216Z,4.83
2019-04-13T04:53:09.203Z,4.64
2019-04-13T04:54:09.190Z,4.71
2019-04-13T04:55:09.191Z,4.75
2019-04-13T04:56:09.169Z,4.78
2019-04-13T04:57:09.164Z,4.79
2019-04-13T04:58:09.148Z,4.77
2019-04-13T04:59:09.139Z,4.78
2019-04-13T05:00:09.123Z,4.83
2019-04-13T05:01:09.129Z,4.79
2019-04-13T05:02:09.097Z,4.86
2019-04-13T05:03:09.088Z,4.86
2019-04-13T05:04:09.078Z,4.86
2019-04-13T05:05:09.067Z,4.89
2019-04-13T05:06:09.052Z,4.97
2019-04-13T05:07:09.042Z,5.06
2019-04-13T05:08:11.780Z,5.11
2019-04-13T05:09:09.017Z,5.14
2019-04-13T05:10:09.011Z,5.16
2019-04-13T05:11:08.998Z,5.18
2019-04-13T05:12:08.985Z,5.32
2019-04-13T05:13:08.978Z,5.24
2019-04-13T05:14:08.964Z,5.37
2019-04-13T05:15:08.953Z,5.43
2019-04-13T05:16:08.941Z,5.54
2019-04-13T05:17:08.927Z,5.57
2019-04-13T05:18:08.921Z,5.59
2019-04-13T05:19:08.910Z,5.65
2019-04-13T05:20:08.895Z,5.75
2019-04-13T05:21:08.883Z,5.70
2019-04-13T05:22:08.878Z,5.72
2019-04-13T05:23:08.859Z,5.61
2019-04-13T05:24:08.870Z,5.72
2019-04-13T05:25:08.842Z,5.75
2019-04-13T05:26:08.830Z,5.72
2019-04-13T05:27:08.818Z,5.72
2019-04-13T05:28:08.807Z,5.72
2019-04-13T05:29:08.798Z,5.77
2019-04-13T05:30:08.789Z,5.77
2019-04-13T05:31:08.775Z,5.72
2019-04-13T05:32:08.765Z,5.82
2019-04-13T05:33:08.753Z,5.88
2019-04-13T05:34:08.741Z,5.91
2019-04-13T05:35:08.730Z,5.93
2019-04-13T05:36:08.721Z,5.93
2019-04-13T05:37:08.711Z,5.97
2019-04-13T05:38:08.696Z,5.88
2019-04-13T05:39:08.686Z,6.02
2019-04-13T05:40:08.677Z,6.03
2019-04-13T05:41:08.663Z,6.02
2019-04-13T05:42:08.656Z,6.02
2019-04-13T05:43:08.651Z,6.02
2019-04-13T05:44:08.635Z,6.05
2019-04-13T05:45:08.626Z,6.11
2019-04-13T05:46:08.610Z,6.06
2019-04-13T05:47:08.601Z,6.08
2019-04-13T05:48:08.599Z,6.09
2019-04-13T05:49:08.581Z,6.12
2019-04-13T05:50:08.570Z,6.12
2019-04-13T05:51:08.559Z,6.18
2019-04-13T05:52:08.547Z,6.27
2019-04-13T05:53:08.535Z,6.30
2019-04-13T05:54:08.528Z,6.31
2019-04-13T05:55:08.520Z,6.34
2019-04-13T05:56:08.506Z,6.35
2019-04-13T05:57:08.504Z,6.34
2019-04-13T05:58:08.483Z,6.42
2019-04-13T05:59:48.985Z,6.46
2019-04-13T06:00:08.461Z,6.47
2019-04-13T06:01:08.458Z,6.47
2019-04-13T06:02:08.444Z,6.37
2019-04-13T06:03:08.432Z,6.50
2019-04-13T06:04:08.423Z,6.56
2019-04-13T06:05:08.411Z,6.57
2019-04-13T06:06:08.403Z,6.56
2019-04-13T06:07:08.391Z,6.52
2019-04-13T06:08:08.381Z,6.60
2019-04-13T06:09:08.371Z,6.70
2019-04-13T06:10:08.360Z,6.64
2019-04-13T06:11:08.351Z,6.64
2019-04-13T06:12:10.364Z,6.65
2019-04-13T06:13:08.330Z,6.68
2019-04-13T06:14:08.319Z,6.71
2019-04-13T06:15:08.316Z,6.67
2019-04-13T06:16:09.064Z,6.67
2019-04-13T06:17:08.287Z,6.71
2019-04-13T06:18:20.386Z,6.81
2019-04-13T06:19:08.265Z,6.82
2019-04-13T06:20:08.255Z,6.82
2019-04-13T06:21:08.248Z,6.82
2019-04-13T06:22:08.244Z,6.93
2019-04-13T06:23:08.227Z,6.89
2019-04-13T06:24:08.218Z,6.99
2019-04-13T06:25:09.878Z,7.00
2019-04-13T06:26:08.198Z,7.07
2019-04-13T06:27:11.225Z,7.15
2019-04-13T06:28:08.194Z,7.11
2019-04-13T06:29:08.165Z,7.22
2019-04-13T06:30:08.156Z,7.18
2019-04-13T06:31:08.147Z,7.22
2019-04-13T06:32:08.136Z,7.22
2019-04-13T06:33:08.166Z,7.19
2019-04-13T06:34:08.128Z,7.16
2019-04-13T06:35:08.114Z,7.11
2019-04-13T06:36:09.298Z,7.16
2019-04-13T06:37:12.459Z,7.15
2019-04-13T06:38:08.080Z,7.15
2019-04-13T06:39:08.072Z,7.08
2019-04-13T06:40:08.820Z,7.18
2019-04-13T06:41:10.838Z,7.19
2019-04-13T06:42:08.040Z,7.26
2019-04-13T06:43:08.042Z,7.36
2019-04-13T06:44:08.053Z,7.52
2019-04-13T06:45:08.032Z,7.57
2019-04-13T06:46:07.999Z,7.71
2019-04-13T06:47:07.997Z,7.60
2019-04-13T06:48:08.027Z,7.61
2019-04-13T06:49:07.968Z,7.57
2019-04-13T06:50:07.973Z,7.73
2019-04-13T06:51:08.184Z,7.71
2019-04-13T06:52:08.159Z,7.80
2019-04-13T06:53:08.322Z,7.80
2019-04-13T06:54:09.718Z,7.84
2019-04-13T06:55:07.923Z,7.86
2019-04-13T06:56:07.912Z,7.95
2019-04-13T06:57:07.910Z,7.92
2019-04-13T06:58:07.908Z,8.02
2019-04-13T06:59:07.891Z,8.04
2019-04-13T07:00:11.853Z,8.12
2019-04-13T07:01:07.871Z,7.98
2019-04-13T07:02:07.871Z,8.21
2019-04-13T07:03:07.855Z,8.37
2019-04-13T07:04:07.846Z,8.44
2019-04-13T07:05:07.848Z,8.46
2019-04-13T07:06:07.833Z,8.49
2019-04-13T07:07:08.576Z,8.56
2019-04-13T07:08:07.818Z,8.62
2019-04-13T07:09:07.807Z,8.71
2019-04-13T07:10:07.801Z,8.89
2019-04-13T07:11:07.813Z,8.80
2019-04-13T07:12:07.788Z,8.96
2019-04-13T07:13:07.778Z,8.99
2019-04-13T07:14:07.775Z,8.96
2019-04-13T07:15:07.765Z,9.01
2019-04-13T07:16:10.455Z,8.98
2019-04-13T07:17:07.757Z,9.11
2019-04-13T07:18:07.746Z,9.09
2019-04-13T07:19:07.742Z,9.19
2019-04-13T07:20:07.844Z,9.08
2019-04-13T07:21:07.889Z,9.08
2019-04-13T07:22:07.719Z,9.04
2019-04-13T07:23:07.747Z,9.03
2019-04-13T07:24:07.733Z,8.81
2019-04-13T07:25:10.442Z,8.78
2019-04-13T07:26:07.720Z,8.78
2019-04-13T07:27:07.687Z,8.99
2019-04-13T07:28:07.673Z,8.99
2019-04-13T07:29:07.678Z,9.08
2019-04-13T07:30:07.664Z,9.27
2019-04-13T07:31:07.657Z,9.48
2019-04-13T07:32:07.651Z,9.62
2019-04-13T07:33:07.643Z,9.85
2019-04-13T07:34:07.635Z,9.99
2019-04-13T07:35:09.617Z,10.02
2019-04-13T07:36:10.677Z,10.02
2019-04-13T07:37:07.646Z,9.84
2019-04-13T07:38:07.636Z,9.72
2019-04-13T07:39:07.603Z,9.59
2019-04-13T07:40:07.594Z,9.52
2019-04-13T07:41:07.591Z,9.48
2019-04-13T07:42:07.578Z,9.50
2019-04-13T07:43:10.625Z,9.42
2019-04-13T07:44:07.569Z,9.32
2019-04-13T07:45:07.560Z,9.30
2019-04-13T07:46:07.556Z,9.27
2019-04-13T07:47:07.543Z,9.03
2019-04-13T07:48:07.540Z,9.01
2019-04-13T07:49:07.530Z,8.88
2019-04-13T07:50:07.525Z,8.67
2019-04-13T07:51:07.519Z,8.56
2019-04-13T07:52:07.556Z,8.46
2019-04-13T07:53:07.499Z,8.41
2019-04-13T07:54:07.629Z,8.35
2019-04-13T07:55:07.487Z,8.21
2019-04-13T07:56:07.471Z,8.14
2019-04-13T07:57:07.474Z,8.20
2019-04-13T07:58:07.471Z,8.31
2019-04-13T07:59:07.455Z,8.39
2019-04-13T08:00:07.448Z,8.38
2019-04-13T08:01:07.435Z,8.49
2019-04-13T08:02:07.432Z,8.68
2019-04-13T08:03:07.420Z,8.81
2019-04-13T08:04:07.417Z,8.93
2019-04-13T08:05:07.404Z,8.95
2019-04-13T08:06:07.397Z,9.14
2019-04-13T08:07:07.392Z,9.19
2019-04-13T08:08:07.396Z,9.08
2019-04-13T08:09:07.376Z,9.19
2019-04-13T08:10:07.372Z,9.24
2019-04-13T08:11:07.361Z,9.24
2019-04-13T08:12:07.354Z,9.27
2019-04-13T08:13:07.338Z,9.30
2019-04-13T08:14:07.343Z,9.26
2019-04-13T08:15:07.329Z,9.09
2019-04-13T08:16:07.323Z,8.99
2019-04-13T08:17:07.314Z,8.92
2019-04-13T08:18:08.684Z,8.85
2019-04-13T08:19:07.299Z,8.57
2019-04-13T08:20:07.293Z,8.55
2019-04-13T08:21:07.283Z,8.53
2019-04-13T08:22:07.310Z,8.34
2019-04-13T08:23:07.267Z,8.17
2019-04-13T08:24:07.257Z,7.92
2019-04-13T08:25:07.250Z,7.91
2019-04-13T08:26:09.327Z,7.77
2019-04-13T08:27:07.234Z,7.68
2019-04-13T08:28:07.229Z,7.68
2019-04-13T08:29:07.219Z,7.77
2019-04-13T08:30:07.212Z,7.86
2019-04-13T08:31:07.203Z,8.02
2019-04-13T08:32:07.202Z,8.17
2019-04-13T08:33:07.196Z,8.39
2019-04-13T08:34:07.181Z,8.32
2019-04-13T08:35:07.232Z,8.47
2019-04-13T08:36:07.158Z,8.49
2019-04-13T08:37:07.147Z,8.50
2019-04-13T08:38:13.058Z,8.52
2019-04-13T08:39:07.138Z,8.44
2019-04-13T08:40:09.618Z,8.46
2019-04-13T08:41:11.398Z,8.42
2019-04-13T08:42:18.909Z,8.42
2019-04-13T08:43:07.105Z,8.42
2019-04-13T08:44:07.130Z,8.31
2019-04-13T08:45:07.110Z,8.14
2019-04-13T08:46:07.077Z,8.13
2019-04-13T08:47:07.074Z,8.05
2019-04-13T08:48:07.091Z,8.05
2019-04-13T08:49:07.061Z,8.06
2019-04-13T08:50:07.048Z,7.96
2019-04-13T08:51:07.038Z,7.86
2019-04-13T08:52:07.028Z,7.92
2019-04-13T08:53:07.022Z,7.84
2019-04-13T08:54:07.011Z,7.66
2019-04-13T08:55:07.009Z,7.64
2019-04-13T08:56:07.009Z,7.57
2019-04-13T08:57:07.008Z,7.42
2019-04-13T08:58:06.971Z,7.19
2019-04-13T08:59:06.975Z,7.22
2019-04-13T09:00:06.966Z,7.19
2019-04-13T09:01:06.961Z,7.21
2019-04-13T09:02:06.950Z,7.15
2019-04-13T09:03:06.942Z,7.13
2019-04-13T09:04:06.936Z,7.04
2019-04-13T09:05:06.937Z,7.04
2019-04-13T09:06:06.914Z,7.00
2019-04-13T09:07:06.919Z,6.97
2019-04-13T09:08:06.894Z,7.00
2019-04-13T09:09:06.878Z,7.07
2019-04-13T09:10:07.238Z,7.01
2019-04-13T09:11:06.855Z,7.03
2019-04-13T09:12:08.813Z,6.89
2019-04-13T09:13:06.871Z,6.89
2019-04-13T09:14:10.756Z,6.85
2019-04-13T09:15:06.835Z,6.85
2019-04-13T09:16:06.822Z,6.88
2019-04-13T09:17:06.804Z,6.79
2019-04-13T09:18:07.628Z,6.83
2019-04-13T09:19:08.324Z,6.83
2019-04-13T09:20:07.793Z,6.88
2019-04-13T09:21:09.238Z,6.99
2019-04-13T09:22:06.983Z,6.97
2019-04-13T09:23:06.887Z,6.92
2019-04-13T09:24:06.743Z,7.13
2019-04-13T09:25:06.735Z,7.21
2019-04-13T09:26:06.724Z,7.31
2019-04-13T09:27:07.464Z,7.36
2019-04-13T09:28:06.707Z,7.46
2019-04-13T09:29:06.693Z,7.54
2019-04-13T09:30:06.676Z,7.57
2019-04-13T09:31:09.223Z,7.57
2019-04-13T09:32:06.667Z,7.64
2019-04-13T09:33:07.331Z,7.71
2019-04-13T09:34:11.784Z,7.88
2019-04-13T09:35:06.641Z,8.06
2019-04-13T09:36:06.624Z,8.19
2019-04-13T09:37:06.621Z,8.29
2019-04-13T09:38:06.946Z,8.34
2019-04-13T09:39:06.613Z,8.52
2019-04-13T09:40:06.599Z,8.55
2019-04-13T09:41:06.591Z,8.52
2019-04-13T09:42:10.294Z,8.56
2019-04-13T09:43:06.564Z,8.57
2019-04-13T09:44:06.558Z,8.59
2019-04-13T09:45:06.559Z,8.55
2019-04-13T09:46:07.068Z,8.55
2019-04-13T09:47:08.818Z,8.53
2019-04-13T09:48:06.554Z,8.52
2019-04-13T09:49:06.520Z,8.49
2019-04-13T09:50:06.514Z,8.41
2019-04-13T09:51:06.527Z,8.39
2019-04-13T09:52:06.508Z,8.29
2019-04-13T09:53:06.497Z,8.24
2019-04-13T09:54:06.476Z,8.24
2019-04-13T09:55:06.479Z,8.21
2019-04-13T09:56:06.461Z,8.19
2019-04-13T09:57:06.501Z,8.12
2019-04-13T09:58:06.457Z,8.05
2019-04-13T09:59:10.708Z,8.05
2019-04-13T10:00:06.437Z,8.02
2019-04-13T10:01:06.430Z,8.05
2019-04-13T10:02:06.408Z,8.05
2019-04-13T10:03:08.289Z,8.14
2019-04-13T10:04:06.396Z,8.24
2019-04-13T10:05:06.379Z,8.28
2019-04-13T10:06:06.377Z,8.29
2019-04-13T10:07:08.821Z,8.32
2019-04-13T10:08:06.360Z,8.37
2019-04-13T10:09:08.497Z,8.37
2019-04-13T10:10:06.340Z,8.53
2019-04-13T10:11:06.329Z,8.60
2019-04-13T10:12:06.326Z,8.71
2019-04-13T10:13:06.318Z,8.72
2019-04-13T10:14:06.298Z,8.77
2019-04-13T10:15:06.301Z,8.85
2019-04-13T10:16:06.286Z,9.01
2019-04-13T10:17:06.275Z,9.03
2019-04-13T10:18:06.279Z,9.08
2019-04-13T10:19:06.268Z,9.22
2019-04-13T10:20:10.431Z,9.23
2019-04-13T10:21:06.252Z,9.26
2019-04-13T10:22:06.240Z,9.45
2019-04-13T10:23:06.236Z,9.37
2019-04-13T10:24:06.228Z,9.48
2019-04-13T10:25:06.218Z,9.62
2019-04-13T10:26:06.217Z,9.62
2019-04-13T10:27:06.202Z,9.69
2019-04-13T10:28:06.191Z,9.85
2019-04-13T10:29:08.001Z,9.80
2019-04-13T10:30:06.181Z,9.94
2019-04-13T10:31:06.174Z,10.01
2019-04-13T10:32:06.166Z,10.14
2019-04-13T10:33:06.157Z,10.17
2019-04-13T10:34:06.148Z,10.16
2019-04-13T10:35:06.139Z,10.20
2019-04-13T10:36:06.134Z,10.23
2019-04-13T10:37:06.129Z,10.23
2019-04-13T10:38:06.121Z,10.30
2019-04-13T10:39:08.787Z,10.43
2019-04-13T10:40:08.369Z,10.48
2019-04-13T10:41:07.010Z,10.54
2019-04-13T10:42:06.092Z,10.39
2019-04-13T10:43:06.088Z,10.24
2019-04-13T10:44:08.248Z,10.08
2019-04-13T10:45:06.069Z,10.06
2019-04-13T10:46:06.063Z,10.09
2019-04-13T10:47:06.055Z,10.09
2019-04-13T10:48:06.042Z,10.08
2019-04-13T10:49:06.036Z,9.96
2019-04-13T10:50:07.767Z,9.67
2019-04-13T10:51:06.030Z,9.59
2019-04-13T10:52:06.021Z,9.54
2019-04-13T10:53:06.014Z,9.52
2019-04-13T10:54:06.006Z,9.52
2019-04-13T10:55:06.001Z,9.48
2019-04-13T10:56:05.997Z,9.44
2019-04-13T10:57:05.994Z,9.27
2019-04-13T10:58:05.979Z,9.14
2019-04-13T10:59:05.972Z,9.15
2019-04-13T11:00:05.963Z,9.23
2019-04-13T11:01:05.958Z,9.14
2019-04-13T11:02:05.955Z,9.11
2019-04-13T11:03:05.946Z,9.14
2019-04-13T11:04:05.938Z,9.26
2019-04-13T11:05:05.927Z,9.16
2019-04-13T11:06:08.554Z,8.95
2019-04-13T11:07:05.921Z,9.03
2019-04-13T11:08:05.903Z,8.92
2019-04-13T11:09:05.891Z,8.80
2019-04-13T11:10:05.889Z,8.68
2019-04-13T11:11:05.881Z,8.53
2019-04-13T11:12:05.870Z,8.34
2019-04-13T11:13:05.861Z,8.29
2019-04-13T11:14:05.855Z,8.29
2019-04-13T11:15:05.849Z,8.24
2019-04-13T11:16:05.843Z,8.29
2019-04-13T11:17:05.834Z,8.28
2019-04-13T11:18:05.821Z,8.37
2019-04-13T11:19:07.695Z,8.31
2019-04-13T11:20:05.800Z,8.32
2019-04-13T11:21:05.798Z,8.46
2019-04-13T11:22:05.793Z,8.53
2019-04-13T11:23:05.782Z,8.55
2019-04-13T11:24:05.773Z,8.53
2019-04-13T11:25:05.764Z,8.62
2019-04-13T11:26:05.756Z,8.62
2019-04-13T11:27:06.379Z,8.75
2019-04-13T11:28:07.618Z,8.75
2019-04-13T11:29:05.730Z,8.78
2019-04-13T11:30:05.726Z,8.80
2019-04-13T11:31:05.716Z,8.86
2019-04-13T11:32:05.712Z,8.78
2019-04-13T11:33:05.699Z,8.74
2019-04-13T11:34:05.688Z,8.75
2019-04-13T11:35:05.679Z,8.67
2019-04-13T11:36:07.507Z,8.72
2019-04-13T11:37:05.909Z,8.72
2019-04-13T11:38:05.652Z,8.67
2019-04-13T11:39:05.646Z,8.50
2019-04-13T11:40:05.640Z,8.55
2019-04-13T11:41:05.630Z,8.46
2019-04-13T11:42:05.622Z,8.37
2019-04-13T11:43:08.487Z,8.28
2019-04-13T11:44:05.602Z,8.26
2019-04-13T11:45:05.607Z,8.21
2019-04-13T11:46:05.589Z,8.17
2019-04-13T11:47:05.578Z,8.04
2019-04-13T11:48:05.573Z,7.94
2019-04-13T11:49:05.558Z,7.96
2019-04-13T11:50:05.549Z,7.68
2019-04-13T11:51:05.543Z,7.68
2019-04-13T11:52:05.541Z,7.73
2019-04-13T11:53:05.523Z,7.58
2019-04-13T11:54:05.529Z,7.49
2019-04-13T11:55:06.395Z,7.46
2019-04-13T11:56:05.948Z,7.44
2019-04-13T11:57:05.491Z,7.43
2019-04-13T11:58:05.487Z,7.46
2019-04-13T11:59:05.475Z,7.46
2019-04-13T12:00:05.465Z,7.47
2019-04-13T12:01:07.007Z,7.46
2019-04-13T12:02:05.450Z,7.43
2019-04-13T12:03:05.445Z,7.42
2019-04-13T12:04:08.341Z,7.31
2019-04-13T12:05:05.429Z,7.33
2019-04-13T12:06:06.229Z,7.39
2019-04-13T12:07:05.403Z,7.34
2019-04-13T12:08:05.396Z,7.49
2019-04-13T12:09:05.381Z,7.54
2019-04-13T12:10:05.375Z,7.52
2019-04-13T12:11:05.368Z,7.66
2019-04-13T12:12:05.357Z,7.81
2019-04-13T12:13:05.359Z,7.83
2019-04-13T12:14:05.341Z,7.94
2019-04-13T12:15:07.166Z,8.04
2019-04-13T12:16:05.322Z,8.12
2019-04-13T12:17:05.314Z,8.31
2019-04-13T12:18:05.306Z,8.29
2019-04-13T12:19:05.296Z,8.53
2019-04-13T12:20:05.287Z,8.70
2019-04-13T12:21:05.276Z,8.77
2019-04-13T12:22:05.270Z,8.83
2019-04-13T12:23:05.260Z,8.93
2019-04-13T12:24:05.243Z,8.98
2019-04-13T12:25:05.250Z,8.90
2019-04-13T12:26:07.115Z,8.93
2019-04-13T12:27:05.908Z,8.89
2019-04-13T12:28:05.222Z,8.86
2019-04-13T12:29:05.211Z,8.93
2019-04-13T12:30:05.202Z,8.92
2019-04-13T12:31:05.199Z,8.86
2019-04-13T12:32:05.190Z,8.85
2019-04-13T12:33:05.177Z,8.83
2019-04-13T12:34:05.192Z,8.85
2019-04-13T12:35:07.882Z,8.83
2019-04-13T12:36:05.155Z,8.80
2019-04-13T12:37:05.151Z,8.83
2019-04-13T12:38:09.560Z,8.75
2019-04-13T12:39:07.410Z,8.67
2019-04-13T12:40:05.122Z,8.60
2019-04-13T12:41:05.118Z,8.52
2019-04-13T12:42:05.970Z,8.55
2019-04-13T12:43:05.109Z,8.68
2019-04-13T12:44:05.090Z,8.70
2019-04-13T12:45:05.084Z,8.71
2019-04-13T12:46:05.077Z,8.85
2019-04-13T12:47:05.066Z,8.95
2019-04-13T12:48:05.913Z,8.98
2019-04-13T12:49:05.051Z,9.06
2019-04-13T12:50:05.039Z,9.15
2019-04-13T12:51:05.031Z,9.41
2019-04-13T12:52:05.031Z,9.37
2019-04-13T12:53:05.021Z,9.52
2019-04-13T12:54:05.014Z,9.51
2019-04-13T12:55:05.941Z,9.59
2019-04-13T12:56:04.993Z,9.59
2019-04-13T12:57:04.991Z,9.67
2019-04-13T12:58:04.981Z,9.72
2019-04-13T12:59:04.980Z,9.83
2019-04-13T13:00:08.027Z,9.87
2019-04-13T13:01:04.957Z,9.81
2019-04-13T13:02:04.949Z,9.83
2019-04-13T13:03:08.733Z,9.93
2019-04-13T13:04:05.435Z,10.01
2019-04-13T13:05:04.926Z,10.06
2019-04-13T13:06:04.917Z,10.05
2019-04-13T13:07:06.737Z,10.17
2019-04-13T13:08:08.171Z,10.09
2019-04-13T13:09:09.348Z,10.16
2019-04-13T13:10:14.628Z,10.35
2019-04-13T13:11:04.922Z,10.39
2019-04-13T13:12:06.521Z,10.39
2019-04-13T13:13:04.883Z,10.45
2019-04-13T13:14:04.861Z,10.42
2019-04-13T13:15:07.975Z,10.34
2019-04-13T13:16:04.850Z,10.10
2019-04-13T13:17:04.845Z,9.85